sensor_id;sensor_type;location;lat;lon;timestamp;P1;durP1;ratioP1;P2;durP2;ratioP2
11931;SDS011;6025;51.368;6.788;2023-02-04T00:02:28;17.13;;;3.20;;
11931;SDS011;6025;51.368;6.788;2023-02-04T00:07:21;16.20;;;2.90;;
11931;SDS011;6025;51.368;6.788;2023-02-04T00:12:13;15.33;;;3.60;;
11931;SDS011;6025;51.368;6.788;2023-02-04T00:17:05;14.93;;;3.30;;
11931;SDS011;6025;51.368;6.788;2023-02-04T00:21:59;16.70;;;3.27;;
11931;SDS011;6025;51.368;6.788;2023-02-04T00:26:54;18.10;;;4.25;;
11931;SDS011;6025;51.368;6.788;2023-02-04T00:31:46;12.60;;;3.10;;
11931;SDS011;6025;51.368;6.788;2023-02-04T00:36:37;14.40;;;3.30;;
11931;SDS011;6025;51.368;6.788;2023-02-04T00:41:29;16.03;;;3.60;;
11931;SDS011;6025;51.368;6.788;2023-02-04T00:46:22;16.60;;;3.77;;
11931;SDS011;6025;51.368;6.788;2023-02-04T00:51:14;18.67;;;3.67;;
11931;SDS011;6025;51.368;6.788;2023-02-04T00:56:06;15.57;;;3.37;;
11931;SDS011;6025;51.368;6.788;2023-02-04T01:00:58;20.40;;;3.22;;
11931;SDS011;6025;51.368;6.788;2023-02-04T01:05:51;14.27;;;3.27;;
11931;SDS011;6025;51.368;6.788;2023-02-04T01:10:43;18.93;;;3.50;;
11931;SDS011;6025;51.368;6.788;2023-02-04T01:15:34;15.13;;;3.37;;
11931;SDS011;6025;51.368;6.788;2023-02-04T01:20:26;15.13;;;3.63;;
11931;SDS011;6025;51.368;6.788;2023-02-04T01:25:19;14.38;;;3.15;;
11931;SDS011;6025;51.368;6.788;2023-02-04T01:30:12;13.77;;;3.70;;
11931;SDS011;6025;51.368;6.788;2023-02-04T01:35:05;17.87;;;3.30;;
11931;SDS011;6025;51.368;6.788;2023-02-04T01:39:57;19.67;;;3.70;;
11931;SDS011;6025;51.368;6.788;2023-02-04T01:44:50;13.10;;;3.47;;
11931;SDS011;6025;51.368;6.788;2023-02-04T01:49:42;18.83;;;3.65;;
11931;SDS011;6025;51.368;6.788;2023-02-04T01:54:34;11.13;;;2.90;;
11931;SDS011;6025;51.368;6.788;2023-02-04T01:59:25;15.97;;;3.70;;
11931;SDS011;6025;51.368;6.788;2023-02-04T02:04:19;17.70;;;3.92;;
11931;SDS011;6025;51.368;6.788;2023-02-04T02:09:13;17.13;;;3.70;;
11931;SDS011;6025;51.368;6.788;2023-02-04T02:14:04;14.90;;;3.63;;
11931;SDS011;6025;51.368;6.788;2023-02-04T02:18:56;13.70;;;3.13;;
11931;SDS011;6025;51.368;6.788;2023-02-04T02:23:50;13.70;;;3.72;;
11931;SDS011;6025;51.368;6.788;2023-02-04T02:28:43;15.33;;;3.10;;
11931;SDS011;6025;51.368;6.788;2023-02-04T02:33:36;15.57;;;3.17;;
11931;SDS011;6025;51.368;6.788;2023-02-04T02:38:28;14.13;;;3.10;;
11931;SDS011;6025;51.368;6.788;2023-02-04T02:43:22;18.95;;;3.80;;
11931;SDS011;6025;51.368;6.788;2023-02-04T02:48:15;17.70;;;3.20;;
11931;SDS011;6025;51.368;6.788;2023-02-04T02:53:09;18.90;;;3.37;;
11931;SDS011;6025;51.368;6.788;2023-02-04T02:58:01;15.03;;;2.87;;
11931;SDS011;6025;51.368;6.788;2023-02-04T03:02:55;12.53;;;2.97;;
11931;SDS011;6025;51.368;6.788;2023-02-04T03:07:49;13.60;;;3.20;;
11931;SDS011;6025;51.368;6.788;2023-02-04T03:12:41;12.70;;;2.83;;
11931;SDS011;6025;51.368;6.788;2023-02-04T03:17:33;13.70;;;2.95;;
11931;SDS011;6025;51.368;6.788;2023-02-04T03:22:26;15.23;;;3.25;;
11931;SDS011;6025;51.368;6.788;2023-02-04T03:27:18;16.45;;;3.15;;
11931;SDS011;6025;51.368;6.788;2023-02-04T03:32:10;15.53;;;2.90;;
11931;SDS011;6025;51.368;6.788;2023-02-04T03:37:02;15.00;;;3.33;;
11931;SDS011;6025;51.368;6.788;2023-02-04T03:41:55;15.13;;;3.20;;
11931;SDS011;6025;51.368;6.788;2023-02-04T03:46:47;12.47;;;2.77;;
11931;SDS011;6025;51.368;6.788;2023-02-04T03:51:41;13.50;;;2.80;;
11931;SDS011;6025;51.368;6.788;2023-02-04T03:56:33;12.43;;;2.60;;
11931;SDS011;6025;51.368;6.788;2023-02-04T04:01:26;15.37;;;3.23;;
11931;SDS011;6025;51.368;6.788;2023-02-04T04:06:18;15.23;;;3.30;;
11931;SDS011;6025;51.368;6.788;2023-02-04T04:11:10;12.33;;;3.07;;
11931;SDS011;6025;51.368;6.788;2023-02-04T04:16:02;11.67;;;3.00;;
11931;SDS011;6025;51.368;6.788;2023-02-04T04:20:55;12.73;;;3.07;;
11931;SDS011;6025;51.368;6.788;2023-02-04T04:25:47;12.93;;;3.37;;
11931;SDS011;6025;51.368;6.788;2023-02-04T04:30:38;11.80;;;3.17;;
11931;SDS011;6025;51.368;6.788;2023-02-04T04:35:30;11.23;;;2.67;;
11931;SDS011;6025;51.368;6.788;2023-02-04T04:40:23;14.23;;;3.30;;
11931;SDS011;6025;51.368;6.788;2023-02-04T04:45:15;9.23;;;2.70;;
11931;SDS011;6025;51.368;6.788;2023-02-04T04:50:09;14.23;;;3.50;;
11931;SDS011;6025;51.368;6.788;2023-02-04T04:55:01;13.63;;;3.10;;
11931;SDS011;6025;51.368;6.788;2023-02-04T04:59:54;15.30;;;2.87;;
11931;SDS011;6025;51.368;6.788;2023-02-04T05:04:46;17.77;;;3.27;;
11931;SDS011;6025;51.368;6.788;2023-02-04T05:09:37;13.07;;;3.17;;
11931;SDS011;6025;51.368;6.788;2023-02-04T05:14:29;16.30;;;3.13;;
11931;SDS011;6025;51.368;6.788;2023-02-04T05:19:22;12.77;;;3.03;;
11931;SDS011;6025;51.368;6.788;2023-02-04T05:24:14;17.40;;;3.27;;
11931;SDS011;6025;51.368;6.788;2023-02-04T05:29:06;14.90;;;3.30;;
11931;SDS011;6025;51.368;6.788;2023-02-04T05:33:57;11.93;;;2.90;;
11931;SDS011;6025;51.368;6.788;2023-02-04T05:38:50;11.77;;;3.10;;
11931;SDS011;6025;51.368;6.788;2023-02-04T05:43:42;17.30;;;3.03;;
11931;SDS011;6025;51.368;6.788;2023-02-04T05:48:34;15.40;;;3.30;;
11931;SDS011;6025;51.368;6.788;2023-02-04T05:53:26;13.40;;;2.83;;
11931;SDS011;6025;51.368;6.788;2023-02-04T05:58:19;12.70;;;3.23;;
11931;SDS011;6025;51.368;6.788;2023-02-04T06:03:10;16.27;;;3.50;;
11931;SDS011;6025;51.368;6.788;2023-02-04T06:08:03;15.77;;;3.60;;
11931;SDS011;6025;51.368;6.788;2023-02-04T06:12:55;11.60;;;3.33;;
11931;SDS011;6025;51.368;6.788;2023-02-04T06:17:48;13.57;;;3.37;;
11931;SDS011;6025;51.368;6.788;2023-02-04T06:22:40;17.40;;;3.43;;
11931;SDS011;6025;51.368;6.788;2023-02-04T06:27:32;13.10;;;3.77;;
11931;SDS011;6025;51.368;6.788;2023-02-04T06:32:24;17.30;;;3.30;;
11931;SDS011;6025;51.368;6.788;2023-02-04T06:37:17;12.90;;;3.77;;
11931;SDS011;6025;51.368;6.788;2023-02-04T06:42:09;17.57;;;3.60;;
11931;SDS011;6025;51.368;6.788;2023-02-04T06:47:01;16.37;;;3.47;;
11931;SDS011;6025;51.368;6.788;2023-02-04T06:51:53;13.80;;;4.20;;
11931;SDS011;6025;51.368;6.788;2023-02-04T06:56:46;13.30;;;3.47;;
11931;SDS011;6025;51.368;6.788;2023-02-04T07:01:38;17.83;;;3.90;;
11931;SDS011;6025;51.368;6.788;2023-02-04T07:06:30;12.80;;;3.40;;
11931;SDS011;6025;51.368;6.788;2023-02-04T07:11:22;14.90;;;3.63;;
11931;SDS011;6025;51.368;6.788;2023-02-04T07:16:15;22.33;;;4.80;;
11931;SDS011;6025;51.368;6.788;2023-02-04T07:21:07;16.37;;;3.90;;
11931;SDS011;6025;51.368;6.788;2023-02-04T07:26:02;16.67;;;3.90;;
11931;SDS011;6025;51.368;6.788;2023-02-04T07:30:53;16.27;;;4.40;;
11931;SDS011;6025;51.368;6.788;2023-02-04T07:35:46;18.30;;;4.70;;
11931;SDS011;6025;51.368;6.788;2023-02-04T07:40:38;18.17;;;5.27;;
11931;SDS011;6025;51.368;6.788;2023-02-04T07:45:30;17.23;;;4.73;;
11931;SDS011;6025;51.368;6.788;2023-02-04T07:50:24;20.57;;;4.87;;
11931;SDS011;6025;51.368;6.788;2023-02-04T07:55:19;20.77;;;4.07;;
11931;SDS011;6025;51.368;6.788;2023-02-04T08:00:11;19.50;;;3.90;;
11931;SDS011;6025;51.368;6.788;2023-02-04T08:05:05;21.43;;;4.47;;
11931;SDS011;6025;51.368;6.788;2023-02-04T08:10:00;18.30;;;3.87;;
11931;SDS011;6025;51.368;6.788;2023-02-04T08:14:53;16.20;;;4.10;;
11931;SDS011;6025;51.368;6.788;2023-02-04T08:19:45;13.67;;;3.57;;
11931;SDS011;6025;51.368;6.788;2023-02-04T08:24:39;15.40;;;3.97;;
11931;SDS011;6025;51.368;6.788;2023-02-04T08:29:31;20.50;;;4.63;;
11931;SDS011;6025;51.368;6.788;2023-02-04T08:34:24;13.73;;;3.90;;
11931;SDS011;6025;51.368;6.788;2023-02-04T08:39:20;19.73;;;4.60;;
11931;SDS011;6025;51.368;6.788;2023-02-04T08:44:12;14.77;;;3.15;;
11931;SDS011;6025;51.368;6.788;2023-02-04T08:49:04;17.73;;;3.83;;
11931;SDS011;6025;51.368;6.788;2023-02-04T08:53:57;13.07;;;4.23;;
11931;SDS011;6025;51.368;6.788;2023-02-04T08:58:49;15.95;;;3.88;;
11931;SDS011;6025;51.368;6.788;2023-02-04T09:03:43;18.75;;;4.28;;
11931;SDS011;6025;51.368;6.788;2023-02-04T09:08:35;21.43;;;4.87;;
11931;SDS011;6025;51.368;6.788;2023-02-04T09:13:29;15.95;;;3.83;;
11931;SDS011;6025;51.368;6.788;2023-02-04T09:18:24;16.80;;;4.68;;
11931;SDS011;6025;51.368;6.788;2023-02-04T09:23:16;21.45;;;4.93;;
11931;SDS011;6025;51.368;6.788;2023-02-04T09:28:07;19.25;;;4.68;;
11931;SDS011;6025;51.368;6.788;2023-02-04T09:33:02;19.23;;;5.10;;
11931;SDS011;6025;51.368;6.788;2023-02-04T09:37:54;20.15;;;4.75;;
11931;SDS011;6025;51.368;6.788;2023-02-04T09:42:48;22.98;;;5.38;;
11931;SDS011;6025;51.368;6.788;2023-02-04T09:47:41;16.50;;;4.65;;
11931;SDS011;6025;51.368;6.788;2023-02-04T09:52:34;21.73;;;4.75;;
11931;SDS011;6025;51.368;6.788;2023-02-04T09:57:26;23.45;;;5.05;;
11931;SDS011;6025;51.368;6.788;2023-02-04T10:02:21;21.90;;;5.85;;
11931;SDS011;6025;51.368;6.788;2023-02-04T10:07:14;23.25;;;5.15;;
11931;SDS011;6025;51.368;6.788;2023-02-04T10:12:13;24.60;;;5.68;;
11931;SDS011;6025;51.368;6.788;2023-02-04T10:17:06;22.77;;;5.72;;
11931;SDS011;6025;51.368;6.788;2023-02-04T10:21:59;32.47;;;6.22;;
11931;SDS011;6025;51.368;6.788;2023-02-04T10:26:51;17.23;;;5.50;;
11931;SDS011;6025;51.368;6.788;2023-02-04T10:31:44;25.95;;;6.45;;
11931;SDS011;6025;51.368;6.788;2023-02-04T10:36:38;22.90;;;6.50;;
11931;SDS011;6025;51.368;6.788;2023-02-04T10:41:30;21.50;;;6.63;;
11931;SDS011;6025;51.368;6.788;2023-02-04T10:46:22;23.23;;;8.43;;
11931;SDS011;6025;51.368;6.788;2023-02-04T10:51:15;29.75;;;10.65;;
11931;SDS011;6025;51.368;6.788;2023-02-04T10:56:09;32.13;;;12.10;;
11931;SDS011;6025;51.368;6.788;2023-02-04T11:01:07;36.13;;;13.57;;
11931;SDS011;6025;51.368;6.788;2023-02-04T11:06:00;42.33;;;15.93;;
11931;SDS011;6025;51.368;6.788;2023-02-04T11:10:55;37.35;;;14.20;;
11931;SDS011;6025;51.368;6.788;2023-02-04T11:15:49;46.03;;;14.63;;
11931;SDS011;6025;51.368;6.788;2023-02-04T11:20:54;25.35;;;10.07;;
11931;SDS011;6025;51.368;6.788;2023-02-04T11:25:48;32.25;;;11.75;;
11931;SDS011;6025;51.368;6.788;2023-02-04T11:30:41;32.88;;;12.27;;
11931;SDS011;6025;51.368;6.788;2023-02-04T11:35:33;32.38;;;12.88;;
11931;SDS011;6025;51.368;6.788;2023-02-04T11:40:27;36.35;;;13.63;;
11931;SDS011;6025;51.368;6.788;2023-02-04T11:45:27;30.58;;;12.50;;
11931;SDS011;6025;51.368;6.788;2023-02-04T11:50:26;26.02;;;12.95;;
11931;SDS011;6025;51.368;6.788;2023-02-04T11:55:21;29.83;;;12.35;;
11931;SDS011;6025;51.368;6.788;2023-02-04T12:06:04;32.60;;;12.65;;
11931;SDS011;6025;51.368;6.788;2023-02-04T12:11:01;36.92;;;13.85;;
11931;SDS011;6025;51.368;6.788;2023-02-04T12:15:57;30.25;;;13.68;;
11931;SDS011;6025;51.368;6.788;2023-02-04T12:20:49;32.20;;;11.77;;
11931;SDS011;6025;51.368;6.788;2023-02-04T12:25:43;26.65;;;10.77;;
11931;SDS011;6025;51.368;6.788;2023-02-04T12:30:34;19.13;;;5.15;;
11931;SDS011;6025;51.368;6.788;2023-02-04T12:35:26;19.23;;;5.28;;
11931;SDS011;6025;51.368;6.788;2023-02-04T12:40:20;19.58;;;5.32;;
11931;SDS011;6025;51.368;6.788;2023-02-04T12:45:14;21.25;;;5.38;;
11931;SDS011;6025;51.368;6.788;2023-02-04T12:50:10;15.13;;;4.47;;
11931;SDS011;6025;51.368;6.788;2023-02-04T12:55:03;19.20;;;4.95;;
11931;SDS011;6025;51.368;6.788;2023-02-04T12:59:55;20.90;;;5.07;;
11931;SDS011;6025;51.368;6.788;2023-02-04T13:04:50;19.52;;;4.90;;
11931;SDS011;6025;51.368;6.788;2023-02-04T13:09:42;23.20;;;5.32;;
11931;SDS011;6025;51.368;6.788;2023-02-04T13:14:34;16.38;;;4.60;;
11931;SDS011;6025;51.368;6.788;2023-02-04T13:19:28;18.63;;;5.50;;
11931;SDS011;6025;51.368;6.788;2023-02-04T13:24:23;19.90;;;5.82;;
11931;SDS011;6025;51.368;6.788;2023-02-04T13:29:15;17.35;;;5.07;;
11931;SDS011;6025;51.368;6.788;2023-02-04T13:34:09;23.42;;;5.90;;
11931;SDS011;6025;51.368;6.788;2023-02-04T13:39:01;23.58;;;6.00;;
11931;SDS011;6025;51.368;6.788;2023-02-04T13:43:54;22.95;;;6.45;;
11931;SDS011;6025;51.368;6.788;2023-02-04T13:48:46;16.33;;;5.32;;
11931;SDS011;6025;51.368;6.788;2023-02-04T13:53:39;18.90;;;5.13;;
11931;SDS011;6025;51.368;6.788;2023-02-04T13:58:31;17.42;;;4.88;;
11931;SDS011;6025;51.368;6.788;2023-02-04T14:03:24;20.30;;;4.20;;
11931;SDS011;6025;51.368;6.788;2023-02-04T14:08:16;15.23;;;4.13;;
11931;SDS011;6025;51.368;6.788;2023-02-04T14:13:08;14.32;;;3.90;;
11931;SDS011;6025;51.368;6.788;2023-02-04T14:18:00;19.10;;;4.20;;
11931;SDS011;6025;51.368;6.788;2023-02-04T14:22:53;15.88;;;3.45;;
11931;SDS011;6025;51.368;6.788;2023-02-04T14:27:45;15.75;;;3.97;;
11931;SDS011;6025;51.368;6.788;2023-02-04T14:32:37;16.73;;;4.10;;
11931;SDS011;6025;51.368;6.788;2023-02-04T14:37:28;20.48;;;4.40;;
11931;SDS011;6025;51.368;6.788;2023-02-04T14:42:21;16.10;;;3.80;;
11931;SDS011;6025;51.368;6.788;2023-02-04T14:47:13;19.83;;;3.97;;
11931;SDS011;6025;51.368;6.788;2023-02-04T14:52:05;18.08;;;3.92;;
11931;SDS011;6025;51.368;6.788;2023-02-04T14:56:57;15.70;;;3.65;;
11931;SDS011;6025;51.368;6.788;2023-02-04T15:01:54;17.13;;;4.13;;
11931;SDS011;6025;51.368;6.788;2023-02-04T15:06:46;15.35;;;3.90;;
11931;SDS011;6025;51.368;6.788;2023-02-04T15:11:39;18.75;;;4.57;;
11931;SDS011;6025;51.368;6.788;2023-02-04T15:16:31;18.63;;;4.75;;
11931;SDS011;6025;51.368;6.788;2023-02-04T15:21:25;20.23;;;4.57;;
11931;SDS011;6025;51.368;6.788;2023-02-04T15:26:17;15.63;;;4.43;;
11931;SDS011;6025;51.368;6.788;2023-02-04T15:31:09;22.83;;;5.32;;
11931;SDS011;6025;51.368;6.788;2023-02-04T15:36:01;19.75;;;4.88;;
11931;SDS011;6025;51.368;6.788;2023-02-04T15:40:54;15.25;;;4.22;;
11931;SDS011;6025;51.368;6.788;2023-02-04T15:45:46;16.92;;;4.15;;
11931;SDS011;6025;51.368;6.788;2023-02-04T15:50:38;14.75;;;4.03;;
11931;SDS011;6025;51.368;6.788;2023-02-04T15:55:30;16.33;;;4.03;;
11931;SDS011;6025;51.368;6.788;2023-02-04T16:00:23;19.77;;;3.92;;
11931;SDS011;6025;51.368;6.788;2023-02-04T16:05:15;13.65;;;3.92;;
11931;SDS011;6025;51.368;6.788;2023-02-04T16:10:07;14.30;;;3.67;;
11931;SDS011;6025;51.368;6.788;2023-02-04T16:14:59;13.40;;;3.42;;
11931;SDS011;6025;51.368;6.788;2023-02-04T16:19:52;12.52;;;3.67;;
11931;SDS011;6025;51.368;6.788;2023-02-04T16:24:45;13.93;;;4.28;;
11931;SDS011;6025;51.368;6.788;2023-02-04T16:29:36;17.20;;;3.70;;
11931;SDS011;6025;51.368;6.788;2023-02-04T16:34:28;13.70;;;3.53;;
11931;SDS011;6025;51.368;6.788;2023-02-04T16:39:21;21.30;;;4.20;;
11931;SDS011;6025;51.368;6.788;2023-02-04T16:44:13;16.97;;;3.60;;
11931;SDS011;6025;51.368;6.788;2023-02-04T16:49:05;11.10;;;3.03;;
11931;SDS011;6025;51.368;6.788;2023-02-04T16:53:56;19.20;;;4.73;;
11931;SDS011;6025;51.368;6.788;2023-02-04T16:58:50;20.93;;;3.83;;
11931;SDS011;6025;51.368;6.788;2023-02-04T17:03:42;16.73;;;3.73;;
11931;SDS011;6025;51.368;6.788;2023-02-04T17:08:33;13.77;;;3.07;;
11931;SDS011;6025;51.368;6.788;2023-02-04T17:13:25;14.97;;;4.30;;
11931;SDS011;6025;51.368;6.788;2023-02-04T17:18:18;16.37;;;4.07;;
11931;SDS011;6025;51.368;6.788;2023-02-04T17:23:10;15.90;;;3.47;;
11931;SDS011;6025;51.368;6.788;2023-02-04T17:28:02;15.23;;;3.43;;
11931;SDS011;6025;51.368;6.788;2023-02-04T17:32:54;16.40;;;3.77;;
11931;SDS011;6025;51.368;6.788;2023-02-04T17:37:47;18.83;;;3.33;;
11931;SDS011;6025;51.368;6.788;2023-02-04T17:42:39;10.70;;;3.00;;
11931;SDS011;6025;51.368;6.788;2023-02-04T17:47:30;12.47;;;2.87;;
11931;SDS011;6025;51.368;6.788;2023-02-04T17:52:22;10.93;;;3.13;;
11931;SDS011;6025;51.368;6.788;2023-02-04T17:57:18;11.47;;;3.00;;
11931;SDS011;6025;51.368;6.788;2023-02-04T18:02:11;13.70;;;3.30;;
11931;SDS011;6025;51.368;6.788;2023-02-04T18:07:14;13.43;;;3.10;;
11931;SDS011;6025;51.368;6.788;2023-02-04T18:12:10;16.73;;;3.50;;
11931;SDS011;6025;51.368;6.788;2023-02-04T18:17:08;18.50;;;3.80;;
11931;SDS011;6025;51.368;6.788;2023-02-04T18:22:04;15.77;;;3.20;;
11931;SDS011;6025;51.368;6.788;2023-02-04T18:27:07;13.77;;;3.97;;
11931;SDS011;6025;51.368;6.788;2023-02-04T18:32:09;13.93;;;3.40;;
11931;SDS011;6025;51.368;6.788;2023-02-04T18:37:25;17.30;;;4.40;;
11931;SDS011;6025;51.368;6.788;2023-02-04T18:42:19;16.37;;;3.77;;
11931;SDS011;6025;51.368;6.788;2023-02-04T18:47:23;14.13;;;3.63;;
11931;SDS011;6025;51.368;6.788;2023-02-04T18:52:20;17.63;;;4.00;;
11931;SDS011;6025;51.368;6.788;2023-02-04T18:57:22;19.73;;;4.87;;
11931;SDS011;6025;51.368;6.788;2023-02-04T19:02:32;14.03;;;4.43;;
11931;SDS011;6025;51.368;6.788;2023-02-04T19:07:25;14.07;;;3.50;;
11931;SDS011;6025;51.368;6.788;2023-02-04T19:12:18;13.00;;;3.30;;
11931;SDS011;6025;51.368;6.788;2023-02-04T19:17:19;11.87;;;3.50;;
11931;SDS011;6025;51.368;6.788;2023-02-04T19:22:17;12.03;;;3.63;;
11931;SDS011;6025;51.368;6.788;2023-02-04T19:27:20;16.07;;;3.97;;
11931;SDS011;6025;51.368;6.788;2023-02-04T19:32:28;12.37;;;3.37;;
11931;SDS011;6025;51.368;6.788;2023-02-04T19:37:24;16.23;;;4.13;;
11931;SDS011;6025;51.368;6.788;2023-02-04T19:42:27;13.60;;;3.80;;
11931;SDS011;6025;51.368;6.788;2023-02-04T19:47:24;12.37;;;3.47;;
11931;SDS011;6025;51.368;6.788;2023-02-04T19:52:28;14.03;;;3.20;;
11931;SDS011;6025;51.368;6.788;2023-02-04T19:57:24;12.33;;;3.83;;
11931;SDS011;6025;51.368;6.788;2023-02-04T20:02:19;13.13;;;3.60;;
11931;SDS011;6025;51.368;6.788;2023-02-04T20:07:19;11.57;;;3.67;;
11931;SDS011;6025;51.368;6.788;2023-02-04T20:12:14;14.67;;;3.93;;
11931;SDS011;6025;51.368;6.788;2023-02-04T20:17:17;19.17;;;4.37;;
11931;SDS011;6025;51.368;6.788;2023-02-04T20:22:25;16.03;;;4.43;;
11931;SDS011;6025;51.368;6.788;2023-02-04T20:27:26;14.70;;;4.30;;
11931;SDS011;6025;51.368;6.788;2023-02-04T20:32:21;12.50;;;4.40;;
11931;SDS011;6025;51.368;6.788;2023-02-04T20:37:16;15.63;;;4.53;;
11931;SDS011;6025;51.368;6.788;2023-02-04T20:42:21;19.27;;;4.57;;
11931;SDS011;6025;51.368;6.788;2023-02-04T20:47:20;19.00;;;5.03;;
11931;SDS011;6025;51.368;6.788;2023-02-04T20:57:41;16.40;;;5.03;;
11931;SDS011;6025;51.368;6.788;2023-02-04T21:02:33;13.93;;;4.50;;
11931;SDS011;6025;51.368;6.788;2023-02-04T21:07:32;19.57;;;5.30;;
11931;SDS011;6025;51.368;6.788;2023-02-04T21:12:27;16.23;;;5.33;;
11931;SDS011;6025;51.368;6.788;2023-02-04T21:17:22;12.70;;;5.00;;
11931;SDS011;6025;51.368;6.788;2023-02-04T21:22:14;14.80;;;4.80;;
11931;SDS011;6025;51.368;6.788;2023-02-04T21:27:06;14.23;;;5.20;;
11931;SDS011;6025;51.368;6.788;2023-02-04T21:31:58;16.17;;;5.20;;
11931;SDS011;6025;51.368;6.788;2023-02-04T21:36:51;15.93;;;5.73;;
11931;SDS011;6025;51.368;6.788;2023-02-04T21:41:43;17.70;;;5.30;;
11931;SDS011;6025;51.368;6.788;2023-02-04T21:46:35;17.87;;;5.30;;
11931;SDS011;6025;51.368;6.788;2023-02-04T21:51:27;16.23;;;5.70;;
11931;SDS011;6025;51.368;6.788;2023-02-04T21:56:20;17.47;;;5.90;;
11931;SDS011;6025;51.368;6.788;2023-02-04T22:01:12;17.23;;;6.03;;
11931;SDS011;6025;51.368;6.788;2023-02-04T22:06:04;16.10;;;5.27;;
11931;SDS011;6025;51.368;6.788;2023-02-04T22:10:56;13.30;;;5.40;;
11931;SDS011;6025;51.368;6.788;2023-02-04T22:15:49;12.90;;;4.97;;
11931;SDS011;6025;51.368;6.788;2023-02-04T22:20:41;17.87;;;6.40;;
11931;SDS011;6025;51.368;6.788;2023-02-04T22:25:33;18.73;;;6.10;;
11931;SDS011;6025;51.368;6.788;2023-02-04T22:30:25;15.10;;;5.93;;
11931;SDS011;6025;51.368;6.788;2023-02-04T22:35:18;17.47;;;5.90;;
11931;SDS011;6025;51.368;6.788;2023-02-04T22:40:10;12.77;;;4.90;;
11931;SDS011;6025;51.368;6.788;2023-02-04T22:45:02;14.43;;;5.47;;
11931;SDS011;6025;51.368;6.788;2023-02-04T22:49:55;16.50;;;5.37;;
11931;SDS011;6025;51.368;6.788;2023-02-04T22:54:48;14.33;;;5.77;;
11931;SDS011;6025;51.368;6.788;2023-02-04T22:59:40;17.33;;;6.10;;
11931;SDS011;6025;51.368;6.788;2023-02-04T23:04:32;12.93;;;6.30;;
11931;SDS011;6025;51.368;6.788;2023-02-04T23:09:24;16.20;;;6.03;;
11931;SDS011;6025;51.368;6.788;2023-02-04T23:14:17;15.37;;;6.20;;
11931;SDS011;6025;51.368;6.788;2023-02-04T23:19:10;17.23;;;6.03;;
11931;SDS011;6025;51.368;6.788;2023-02-04T23:24:02;13.83;;;5.70;;
11931;SDS011;6025;51.368;6.788;2023-02-04T23:28:54;16.53;;;7.20;;
11931;SDS011;6025;51.368;6.788;2023-02-04T23:33:51;14.43;;;6.47;;
11931;SDS011;6025;51.368;6.788;2023-02-04T23:38:43;17.53;;;7.57;;
11931;SDS011;6025;51.368;6.788;2023-02-04T23:43:34;16.17;;;6.50;;
11931;SDS011;6025;51.368;6.788;2023-02-04T23:48:26;17.20;;;6.77;;
11931;SDS011;6025;51.368;6.788;2023-02-04T23:53:19;15.80;;;7.10;;
11931;SDS011;6025;51.368;6.788;2023-02-04T23:58:11;19.30;;;6.90;;
